Aérodrome :
LOGIN :

S'inscrire | Disclaimer

   EN    FR    IT 

 










Légende :    VFR   VFR Marginal   IFR   IFR Intensif   IFR Très Intensif
Visi : 
Plafond : 
>= 8 km
>= 3000ft
5 à 8 km
1000 à 3000 ft
1500m à 5 km
500 à 1000 ft
800 à 1500m
200 à 500 ft
< 800m
< 200 ft
Symboles :   Orages  Brouillard  Fortes neiges  Fortes précipitations  Vent > 20 kt
SIGMETs :   Divers  Orages  Givrage  Turbulence  Onde Orograph.  Cendres Volcan.







- Altitude de l'aérodrome : 1416 ft
- Code IATA : ZRH


LSZH - Zurich

DERNIER METAR :
  • 181820Z VRB02KT CAVOK 06/M01 Q1020 NOSIG

METARs EXPIRÉS :
  • 181750Z VRB01KT CAVOK 07/00 Q1019 NOSIG
  • 181720Z 34001KT CAVOK 09/00 Q1019 NOSIG
  • 181650Z 29003KT CAVOK 10/00 Q1019 NOSIG
  • 181620Z 00000KT CAVOK 12/M01 Q1019 NOSIG
  • 181550Z 15001KT CAVOK 13/M00 Q1019 NOSIG

TAF TAF LSZH
Valide du 18 à 18h jusqu'au 20 à 00h UTC


181725Z 1818/1924 VRB03KT CAVOK TX12/1915Z TNM03/1905Z
PROB40 1902/1908 7000 NSC
PROB30 1904/1908 4000 MIFG
PROB40 1921/1924 7000 FEW025
ATIS : +41 43 816 2295 (DEP) +41 43 816 2294 (ARR)
Pas de NOTAMs connus pour ce terrain.



MET'MAP, la Météo Aéronautique d'un coup d'oeil ! - Copyright ORBIFLY Décembre 2007 - Disclaimer

ORBIFLY MET'MAP TEAM :

Programmation & Développement : Alexandra Zaïnal
Conception & Développement : Baudouin d'Aumeries
Co-Programmation & Développement : Marc-Olivier Méhu
Soutien technique & logistique : Manuel Goepfert

Contact : metmap@orbifly.com




SOURCES & CREDITS :

   NOAA